Beckers Corners, New York
Current Conditions -  °F | °C
As of 1:51 PM on Thursday 30 Oct 2014 (Local Time) from KALB Reporting Station
Broken Clouds Broken Clouds  
Wind Chill: 52°   Ceiling: 4400
Heat Index: 52°   Visibility: 10mi
Dew Point: 36°   Wind: 13mph
Humidity: 54%   Direction: 290°WNW
Pressure: 29.97"   Gusts: 20mph
Location:  42.5455°N, 73.8296°W
Report Text: KALB 301751Z 29011G17KT 10SM BKN044 BKN055 11/02 A2997 RMK AO2 SLP149 BKN044 V SCT T01110022 10133 20067 58009
Loading
Personal Weather Stations






























Interactive Weather Map
Tropical Storm Tracking
New forecast layout! Learn more

10-Day Weather Forecast

Advertisements
Track Severe Weather on mobile